createdAt,value
2018-09-02T00:02:23.602Z,53.25
2018-09-02T00:04:49.552Z,52.38
2018-09-02T00:07:15.508Z,53.19
2018-09-02T00:09:41.454Z,52.23
2018-09-02T00:12:07.422Z,52.90
2018-09-02T00:14:33.381Z,53.11
2018-09-02T00:16:59.337Z,53.63
2018-09-02T00:19:25.286Z,52.83
2018-09-02T00:21:51.236Z,54.06
2018-09-02T00:24:17.189Z,53.91
2018-09-02T00:26:43.152Z,52.45
2018-09-02T00:29:09.111Z,54.12
2018-09-02T00:31:35.078Z,53.26
2018-09-02T00:34:01.136Z,54.60
2018-09-02T00:36:29.768Z,52.69
2018-09-02T00:38:55.919Z,52.92
2018-09-02T00:41:21.876Z,52.77
2018-09-02T00:43:47.823Z,52.37
2018-09-02T00:46:13.771Z,51.93
2018-09-02T00:48:39.785Z,52.62
2018-09-02T00:51:05.769Z,53.18
2018-09-02T00:53:31.707Z,53.07
2018-09-02T00:55:57.672Z,53.11
2018-09-02T00:58:23.628Z,53.04
2018-09-02T01:00:49.584Z,53.15
2018-09-02T01:03:15.543Z,52.63
2018-09-02T01:05:41.493Z,52.98
2018-09-02T01:08:07.420Z,51.93
2018-09-02T01:10:33.358Z,53.64
2018-09-02T01:12:59.308Z,52.88
2018-09-02T01:15:25.526Z,52.46
2018-09-02T01:17:51.542Z,51.12
2018-09-02T01:20:17.499Z,51.55
2018-09-02T01:22:43.453Z,51.70
2018-09-02T01:25:09.426Z,53.11
2018-09-02T01:27:35.396Z,52.05
2018-09-02T01:30:01.328Z,51.70
2018-09-02T01:32:27.271Z,52.31
2018-09-02T01:34:53.213Z,52.46
2018-09-02T01:37:19.169Z,52.06
2018-09-02T01:39:45.120Z,53.68
2018-09-02T01:42:11.380Z,51.48
2018-09-02T01:44:37.307Z,51.00
2018-09-02T01:47:03.272Z,52.31
2018-09-02T01:49:29.240Z,52.96
2018-09-02T01:51:55.191Z,51.40
2018-09-02T01:54:21.152Z,52.89
2018-09-02T01:56:47.092Z,51.75
2018-09-02T01:59:13.056Z,52.10
2018-09-02T02:01:39.060Z,52.85
2018-09-02T02:04:05.029Z,52.33
2018-09-02T02:06:31.006Z,51.69
2018-09-02T02:08:56.984Z,51.12
2018-09-02T02:11:23.180Z,50.90
2018-09-02T02:13:49.116Z,52.51
2018-09-02T02:16:15.068Z,52.00
2018-09-02T02:18:41.013Z,52.03
2018-09-02T02:21:06.949Z,52.16
2018-09-02T02:23:32.936Z,52.01
2018-09-02T02:25:58.893Z,51.32
2018-09-02T02:28:24.865Z,52.34
2018-09-02T02:30:50.832Z,51.87
2018-09-02T02:33:16.819Z,51.76
2018-09-02T02:35:42.821Z,52.46
2018-09-02T02:38:08.812Z,52.30
2018-09-02T02:40:34.762Z,51.53
2018-09-02T02:43:00.702Z,52.51
2018-09-02T02:45:26.688Z,51.46
2018-09-02T02:47:52.629Z,51.27
2018-09-02T02:50:18.611Z,52.41
2018-09-02T02:52:44.601Z,53.52
2018-09-02T02:55:11.480Z,52.06
2018-09-02T02:57:37.430Z,52.87
2018-09-02T03:00:03.398Z,51.87
2018-09-02T03:02:29.354Z,52.90
2018-09-02T03:04:55.305Z,52.73
2018-09-02T03:07:21.243Z,51.63
2018-09-02T03:09:47.224Z,51.29
2018-09-02T03:12:13.186Z,51.47
2018-09-02T03:14:39.208Z,51.37
2018-09-02T03:17:05.173Z,52.52
2018-09-02T03:19:31.436Z,51.02
2018-09-02T03:21:57.383Z,51.97
2018-09-02T03:24:23.341Z,51.39
2018-09-02T03:26:49.323Z,51.22
2018-09-02T03:29:15.248Z,51.30
2018-09-02T03:31:41.186Z,52.34
2018-09-02T03:34:07.140Z,51.10
2018-09-02T03:36:33.475Z,50.79
2018-09-02T03:38:59.449Z,51.15
2018-09-02T03:41:25.376Z,50.39
2018-09-02T03:43:51.308Z,51.88
2018-09-02T03:46:17.256Z,51.17
2018-09-02T03:48:43.236Z,52.32
2018-09-02T03:51:09.203Z,51.40
2018-09-02T03:53:35.561Z,51.43
2018-09-02T03:56:01.529Z,51.34
2018-09-02T03:58:27.452Z,53.08
2018-09-02T04:00:53.392Z,51.16
2018-09-02T04:03:19.328Z,52.40
2018-09-02T04:05:45.292Z,52.25
2018-09-02T04:08:11.253Z,51.85
2018-09-02T04:10:37.264Z,52.29
2018-09-02T04:13:03.232Z,52.07
2018-09-02T04:15:29.237Z,52.29
2018-09-02T04:17:55.202Z,50.80
2018-09-02T04:20:21.201Z,51.29
2018-09-02T04:22:48.475Z,51.59
2018-09-02T04:25:14.431Z,51.85
2018-09-02T04:27:40.411Z,52.40
2018-09-02T04:30:06.397Z,52.38
2018-09-02T04:32:32.402Z,52.26
2018-09-02T04:34:58.351Z,53.64
2018-09-02T04:37:24.304Z,53.59
2018-09-02T04:39:50.287Z,52.94
2018-09-02T04:42:16.235Z,52.95
2018-09-02T04:44:42.189Z,53.13
2018-09-02T04:47:08.129Z,52.26
2018-09-02T04:49:34.081Z,53.34
2018-09-02T04:52:00.022Z,52.39
2018-09-02T04:54:26.075Z,51.87
2018-09-02T04:56:51.945Z,52.63
2018-09-02T04:59:17.924Z,51.39
2018-09-02T05:01:43.913Z,51.76
2018-09-02T05:04:09.862Z,52.93
2018-09-02T05:06:35.825Z,51.09
2018-09-02T05:09:01.755Z,52.01
2018-09-02T05:11:27.707Z,51.88
2018-09-02T05:13:53.688Z,50.92
2018-09-02T05:18:54.189Z,51.08
2018-09-02T05:21:20.129Z,51.54
2018-09-02T05:23:46.097Z,51.67
2018-09-02T05:26:12.076Z,52.74
2018-09-02T05:28:38.054Z,51.54
2018-09-02T05:31:04.018Z,52.47
2018-09-02T05:33:30.010Z,52.26
2018-09-02T05:35:55.978Z,51.86
2018-09-02T05:38:21.941Z,51.35
2018-09-02T05:40:47.865Z,52.90
2018-09-02T05:43:13.802Z,52.64
2018-09-02T05:45:39.770Z,53.25
2018-09-02T05:48:05.728Z,52.55
2018-09-02T05:50:31.727Z,53.52
2018-09-02T05:52:57.678Z,53.49
2018-09-02T05:55:23.617Z,54.36
2018-09-02T05:57:49.596Z,52.88
2018-09-02T06:00:15.565Z,52.66
2018-09-02T06:02:41.568Z,53.20
2018-09-02T06:05:07.465Z,51.38
2018-09-02T06:07:33.417Z,52.01
2018-09-02T06:09:59.347Z,52.89
2018-09-02T06:12:25.321Z,52.34
2018-09-02T06:14:51.257Z,53.13
2018-09-02T06:17:17.579Z,53.23
2018-09-02T06:19:43.516Z,52.31
2018-09-02T06:22:09.473Z,53.09
2018-09-02T06:24:35.441Z,52.66
2018-09-02T06:27:01.400Z,53.45
2018-09-02T06:29:27.387Z,53.04
2018-09-02T06:31:53.321Z,53.86
2018-09-02T06:34:19.270Z,52.45
2018-09-02T06:36:45.202Z,52.85
2018-09-02T06:39:11.163Z,53.19
2018-09-02T06:41:37.127Z,53.98
2018-09-02T06:44:03.101Z,53.69
2018-09-02T06:46:29.040Z,52.70
2018-09-02T06:48:55.308Z,53.42
2018-09-02T06:51:21.286Z,52.86
2018-09-02T06:53:47.247Z,53.98
2018-09-02T06:56:13.205Z,53.48
2018-09-02T06:58:39.237Z,51.63
2018-09-02T07:01:05.167Z,52.46
2018-09-02T07:03:31.148Z,51.93
2018-09-02T07:05:57.101Z,52.97
2018-09-02T07:08:23.065Z,53.16
2018-09-02T07:10:49.012Z,52.46
2018-09-02T07:13:14.960Z,54.82
2018-09-02T07:15:40.910Z,53.69
2018-09-02T07:18:06.879Z,53.92
2018-09-02T07:20:32.868Z,54.01
2018-09-02T07:22:58.844Z,53.83
2018-09-02T07:25:24.816Z,54.54
2018-09-02T07:27:50.761Z,53.56
2018-09-02T07:30:16.733Z,52.60
2018-09-02T07:32:42.678Z,52.27
2018-09-02T07:35:08.617Z,52.85
2018-09-02T07:37:34.578Z,53.02
2018-09-02T07:40:00.583Z,53.23
2018-09-02T07:42:29.406Z,53.11
2018-09-02T07:44:59.449Z,52.71
2018-09-02T07:47:25.452Z,52.35
2018-09-02T07:49:51.509Z,53.43
2018-09-02T07:52:18.468Z,52.84
2018-09-02T07:54:44.471Z,52.87
2018-09-02T07:57:10.405Z,52.76
2018-09-02T07:59:36.387Z,52.95
2018-09-02T08:02:02.329Z,52.78
2018-09-02T08:04:28.327Z,55.16
2018-09-02T08:09:29.477Z,53.29
2018-09-02T08:11:57.611Z,52.85
2018-09-02T08:14:23.659Z,52.62
2018-09-02T08:16:51.639Z,53.40
2018-09-02T08:19:17.610Z,53.40
2018-09-02T08:24:15.574Z,54.16
2018-09-02T08:26:41.569Z,53.75
2018-09-02T08:29:07.516Z,52.90
2018-09-02T08:31:33.529Z,53.01
2018-09-02T08:33:59.508Z,53.38
2018-09-02T08:36:25.518Z,54.10
2018-09-02T08:38:51.548Z,53.26
2018-09-02T08:41:17.464Z,52.84
2018-09-02T08:43:43.471Z,53.08
2018-09-02T08:46:09.440Z,53.06
2018-09-02T08:48:35.416Z,53.61
2018-09-02T08:51:01.430Z,53.74
2018-09-02T08:58:30.664Z,53.58
2018-09-02T09:00:56.623Z,53.06
2018-09-02T09:03:22.597Z,53.34
2018-09-02T09:05:48.532Z,52.23
2018-09-02T09:08:14.714Z,54.23
2018-09-02T09:10:40.480Z,53.52
2018-09-02T09:13:07.449Z,52.38
2018-09-02T09:15:33.391Z,52.31
2018-09-02T09:17:59.346Z,53.24
2018-09-02T09:20:25.300Z,53.06
2018-09-02T09:22:51.250Z,54.48
2018-09-02T09:25:17.285Z,52.55
2018-09-02T09:27:43.404Z,52.25
2018-09-02T09:30:09.369Z,53.44
2018-09-02T09:32:35.341Z,53.86
2018-09-02T09:35:01.300Z,52.75
2018-09-02T09:37:27.344Z,53.16
2018-09-02T09:39:53.309Z,53.36
2018-09-02T09:42:19.329Z,53.23
2018-09-02T09:44:45.280Z,53.31
2018-09-02T09:47:11.265Z,53.72
2018-09-02T09:49:37.236Z,53.31
2018-09-02T09:52:03.260Z,54.11
2018-09-02T09:54:29.194Z,52.71
2018-09-02T09:56:55.244Z,52.79
2018-09-02T09:59:21.234Z,53.25
2018-09-02T10:01:47.253Z,52.78
2018-09-02T10:04:13.205Z,52.49
2018-09-02T10:06:39.193Z,53.33
2018-09-02T10:09:05.158Z,53.17
2018-09-02T10:11:31.157Z,53.29
2018-09-02T10:13:57.259Z,53.42
2018-09-02T10:16:23.202Z,52.11
2018-09-02T10:18:49.195Z,53.35
2018-09-02T10:21:15.196Z,52.70
2018-09-02T10:23:41.482Z,53.98
2018-09-02T10:26:07.442Z,53.30
2018-09-02T10:28:36.596Z,53.89
2018-09-02T10:31:02.554Z,52.71
2018-09-02T10:33:28.619Z,53.03
2018-09-02T10:35:54.489Z,51.86
2018-09-02T10:38:20.521Z,52.29
2018-09-02T10:40:51.674Z,52.74
2018-09-02T10:43:18.199Z,53.05
2018-09-02T10:45:44.376Z,52.98
2018-09-02T10:48:10.490Z,53.57
2018-09-02T10:53:11.602Z,52.86
2018-09-02T10:55:38.784Z,53.31
2018-09-02T11:00:39.765Z,52.36
2018-09-02T11:03:05.903Z,52.22
2018-09-02T11:05:31.925Z,52.91
2018-09-02T11:13:01.717Z,52.28
2018-09-02T11:15:27.722Z,52.24
2018-09-02T11:17:53.819Z,51.10
2018-09-02T11:20:19.858Z,51.83
2018-09-02T11:22:45.824Z,51.37
2018-09-02T11:25:11.847Z,51.02
2018-09-02T11:27:37.847Z,51.61
2018-09-02T11:30:03.858Z,52.47
2018-09-02T11:32:29.913Z,51.27
2018-09-02T11:34:55.981Z,51.52
2018-09-02T11:37:21.993Z,50.56
2018-09-02T11:39:47.952Z,51.17
2018-09-02T11:42:13.953Z,51.55
2018-09-02T11:44:40.037Z,51.42
2018-09-02T11:47:06.229Z,51.26
2018-09-02T11:49:32.226Z,52.14
2018-09-02T11:51:58.249Z,51.50
2018-09-02T11:54:24.288Z,51.34
2018-09-02T11:56:50.306Z,51.12
2018-09-02T11:59:16.630Z,52.78
2018-09-02T12:01:42.682Z,51.93
2018-09-02T12:04:08.694Z,51.16
2018-09-02T12:06:34.702Z,51.03
2018-09-02T12:09:00.679Z,51.84
2018-09-02T12:11:26.680Z,51.74
2018-09-02T12:13:52.655Z,51.13
2018-09-02T12:16:18.790Z,51.02
2018-09-02T12:18:44.871Z,51.88
2018-09-02T12:21:11.159Z,52.45
2018-09-02T12:23:37.148Z,52.34
2018-09-02T12:26:03.162Z,51.78
2018-09-02T12:28:29.278Z,50.57
2018-09-02T12:30:55.289Z,51.15
2018-09-02T12:33:21.295Z,51.14
2018-09-02T12:35:47.325Z,51.48
2018-09-02T12:38:13.376Z,51.49
2018-09-02T12:40:39.462Z,51.51
2018-09-02T12:43:05.664Z,51.19
2018-09-02T12:45:31.969Z,51.85
2018-09-02T12:47:58.097Z,51.57
2018-09-02T12:50:24.047Z,51.35
2018-09-02T12:52:50.361Z,51.77
2018-09-02T12:55:16.382Z,51.99
2018-09-02T12:57:42.339Z,52.07
2018-09-02T13:00:08.339Z,52.35
2018-09-02T13:02:34.328Z,52.49
2018-09-02T13:05:00.319Z,52.12
2018-09-02T13:07:26.293Z,52.35
2018-09-02T13:09:52.249Z,52.37
2018-09-02T13:12:18.212Z,50.28
2018-09-02T13:14:44.235Z,52.28
2018-09-02T13:17:10.251Z,52.02
2018-09-02T13:19:36.283Z,52.61
2018-09-02T13:22:02.302Z,52.64
2018-09-02T13:24:28.337Z,52.10
2018-09-02T13:26:54.332Z,52.65
2018-09-02T13:29:20.356Z,51.71
2018-09-02T13:31:46.413Z,52.26
2018-09-02T13:34:14.549Z,51.33
2018-09-02T13:36:40.549Z,51.31
2018-09-02T13:39:06.583Z,52.64
2018-09-02T13:44:09.137Z,51.33
2018-09-02T13:46:35.127Z,52.90
2018-09-02T13:49:01.089Z,52.83
2018-09-02T13:51:27.092Z,52.11
2018-09-02T13:53:53.024Z,52.54
2018-09-02T13:56:19.001Z,51.46
2018-09-02T13:58:44.933Z,52.46
2018-09-02T14:01:10.987Z,52.25
2018-09-02T14:03:36.926Z,50.93
2018-09-02T14:06:02.940Z,51.69
2018-09-02T14:08:28.917Z,51.39
2018-09-02T14:13:27.696Z,50.87
2018-09-02T14:15:53.704Z,50.15
2018-09-02T14:18:19.699Z,50.79
2018-09-02T14:20:49.122Z,50.76
2018-09-02T14:23:15.094Z,49.94
2018-09-02T14:25:41.162Z,50.04
2018-09-02T14:28:07.147Z,50.37
2018-09-02T14:30:33.117Z,50.03
2018-09-02T14:32:59.239Z,49.90
2018-09-02T14:35:25.248Z,49.53
2018-09-02T14:37:51.230Z,49.85
2018-09-02T14:40:17.278Z,50.68
2018-09-02T14:42:43.287Z,50.21
2018-09-02T14:45:09.359Z,50.91
2018-09-02T14:47:35.314Z,50.62
2018-09-02T14:50:01.277Z,50.66
2018-09-02T14:52:27.286Z,50.28
2018-09-02T14:54:53.325Z,51.59
2018-09-02T14:57:19.396Z,49.77
2018-09-02T14:59:45.477Z,50.69
2018-09-02T15:02:11.501Z,50.38
2018-09-02T15:04:38.584Z,49.91
2018-09-02T15:07:04.565Z,51.30
2018-09-02T15:09:30.593Z,49.55
2018-09-02T15:11:56.668Z,51.07
2018-09-02T15:14:23.039Z,51.51
2018-09-02T15:16:49.862Z,51.65
2018-09-02T15:19:15.873Z,52.05
2018-09-02T15:21:41.810Z,51.15
2018-09-02T15:24:07.811Z,51.29
2018-09-02T15:26:33.769Z,50.48
2018-09-02T15:28:59.766Z,50.30
2018-09-02T15:31:25.744Z,50.72
2018-09-02T15:33:51.728Z,50.62
2018-09-02T15:36:17.668Z,50.61
2018-09-02T15:38:43.607Z,50.00
2018-09-02T15:41:09.576Z,50.00
2018-09-02T15:43:35.524Z,50.06
2018-09-02T15:46:01.451Z,50.25
2018-09-02T15:48:27.426Z,49.78
2018-09-02T15:50:53.369Z,50.22
2018-09-02T15:53:19.327Z,50.61
2018-09-02T15:55:45.295Z,49.93
2018-09-02T15:58:11.337Z,49.64
2018-09-02T16:00:37.324Z,50.73
2018-09-02T16:03:03.277Z,50.86
2018-09-02T16:05:29.226Z,50.03
2018-09-02T16:07:55.166Z,50.63
2018-09-02T16:10:21.155Z,50.06
2018-09-02T16:12:47.224Z,49.76
2018-09-02T16:15:13.292Z,50.97
2018-09-02T16:17:39.246Z,50.13
2018-09-02T16:20:05.224Z,49.51
2018-09-02T16:22:31.249Z,50.40
2018-09-02T16:24:57.253Z,50.01
2018-09-02T16:27:24.192Z,50.89
2018-09-02T16:29:50.156Z,49.71
2018-09-02T16:32:16.134Z,49.64
2018-09-02T16:34:42.093Z,50.38
2018-09-02T16:37:08.050Z,50.15
2018-09-02T16:39:34.070Z,50.22
2018-09-02T16:42:00.057Z,51.38
2018-09-02T16:44:26.176Z,51.65
2018-09-02T16:46:52.301Z,51.24
2018-09-02T16:49:18.254Z,50.37
2018-09-02T16:51:44.234Z,50.46
2018-09-02T16:54:10.285Z,50.46
2018-09-02T16:56:36.340Z,50.96
2018-09-02T16:59:02.331Z,51.19
2018-09-02T17:01:28.303Z,51.40
2018-09-02T17:03:54.297Z,51.09
2018-09-02T17:06:20.291Z,50.98
2018-09-02T17:08:46.256Z,50.84
2018-09-02T17:11:12.192Z,50.89
2018-09-02T17:13:38.320Z,51.26
2018-09-02T17:16:04.419Z,52.54
2018-09-02T17:18:30.414Z,52.36
2018-09-02T17:20:56.415Z,53.11
2018-09-02T17:23:22.383Z,51.62
2018-09-02T17:25:48.548Z,52.38
2018-09-02T17:28:14.389Z,53.27
2018-09-02T17:30:41.438Z,52.21
2018-09-02T17:33:07.461Z,52.19
2018-09-02T17:35:34.125Z,52.71
2018-09-02T17:38:00.098Z,52.87
2018-09-02T17:40:26.078Z,53.00
2018-09-02T17:42:52.146Z,52.61
2018-09-02T17:45:18.122Z,52.75
2018-09-02T17:47:44.175Z,52.27
2018-09-02T17:50:10.157Z,52.46
2018-09-02T17:52:36.409Z,53.09
2018-09-02T17:55:02.840Z,51.97
2018-09-02T17:57:28.884Z,52.91
2018-09-02T17:59:55.142Z,53.83
2018-09-02T18:02:21.225Z,53.99
2018-09-02T18:04:47.437Z,52.95
2018-09-02T18:07:17.128Z,52.29
2018-09-02T18:09:44.227Z,53.83
2018-09-02T18:12:10.332Z,53.00
2018-09-02T18:14:36.338Z,52.60
2018-09-02T18:17:02.413Z,51.97
2018-09-02T18:19:28.476Z,54.70
2018-09-02T18:21:54.543Z,55.05
2018-09-02T18:24:21.174Z,54.58
2018-09-02T18:26:47.516Z,54.71
2018-09-02T18:29:13.591Z,55.16
2018-09-02T18:31:39.975Z,54.31
2018-09-02T18:34:07.286Z,56.05
2018-09-02T18:36:33.300Z,54.46
2018-09-02T18:38:59.359Z,54.71
2018-09-02T18:41:25.376Z,55.41
2018-09-02T18:43:51.378Z,54.80
2018-09-02T18:46:17.353Z,55.15
2018-09-02T18:48:43.334Z,55.40
2018-09-02T18:51:09.286Z,55.27
2018-09-02T18:53:35.282Z,54.97
2018-09-02T18:56:01.281Z,55.97
2018-09-02T18:58:27.243Z,55.89
2018-09-02T19:00:53.270Z,54.95
2018-09-02T19:03:19.272Z,55.30
2018-09-02T19:05:45.254Z,55.67
2018-09-02T19:08:11.243Z,55.80
2018-09-02T19:10:37.242Z,54.63
2018-09-02T19:13:03.201Z,54.87
2018-09-02T19:15:29.181Z,55.98
2018-09-02T19:17:55.277Z,54.92
2018-09-02T19:20:21.307Z,54.92
2018-09-02T19:22:47.349Z,54.91
2018-09-02T19:25:13.337Z,54.61
2018-09-02T19:27:39.304Z,54.99
2018-09-02T19:30:05.369Z,55.73
2018-09-02T19:32:31.483Z,55.09
2018-09-02T19:34:57.464Z,55.12
2018-09-02T19:37:23.450Z,56.30
2018-09-02T19:39:49.622Z,56.64
2018-09-02T19:42:15.850Z,57.00
2018-09-02T19:44:41.934Z,56.07
2018-09-02T19:47:07.957Z,55.16
2018-09-02T19:49:33.959Z,55.31
2018-09-02T19:51:59.970Z,55.63
2018-09-02T19:54:25.962Z,56.72
2018-09-02T19:56:51.947Z,55.46
2018-09-02T19:59:17.991Z,55.33
2018-09-02T20:01:43.981Z,55.02
2018-09-02T20:04:09.988Z,55.00
2018-09-02T20:06:35.974Z,55.04
2018-09-02T20:09:01.933Z,54.11
2018-09-02T20:11:27.898Z,54.67
2018-09-02T20:13:53.857Z,56.18
2018-09-02T20:16:19.901Z,54.91
2018-09-02T20:18:45.863Z,56.28
2018-09-02T20:21:11.847Z,56.20
2018-09-02T20:23:37.876Z,54.03
2018-09-02T20:26:03.872Z,53.91
2018-09-02T20:28:29.894Z,55.14
2018-09-02T20:30:55.913Z,55.34
2018-09-02T20:33:21.909Z,55.82
2018-09-02T20:35:47.908Z,55.37
2018-09-02T20:38:13.915Z,56.51
2018-09-02T20:40:40.016Z,55.49
2018-09-02T20:43:06.071Z,54.93
2018-09-02T20:45:32.070Z,56.93
2018-09-02T20:47:58.033Z,55.22
2018-09-02T20:50:23.989Z,55.80
2018-09-02T20:52:49.930Z,54.54
2018-09-02T20:55:15.901Z,54.56
2018-09-02T20:57:41.876Z,54.29
2018-09-02T21:00:07.898Z,55.53
2018-09-02T21:02:33.950Z,55.99
2018-09-02T21:04:59.887Z,55.79
2018-09-02T21:07:25.875Z,55.29
2018-09-02T21:09:51.872Z,55.05
2018-09-02T21:12:17.822Z,55.34
2018-09-02T21:14:43.845Z,55.51
2018-09-02T21:17:09.859Z,56.55
2018-09-02T21:19:35.825Z,54.71
2018-09-02T21:22:01.801Z,55.11
2018-09-02T21:24:27.764Z,55.84
2018-09-02T21:26:53.701Z,55.29
2018-09-02T21:29:19.658Z,55.89
2018-09-02T21:31:45.692Z,55.60
2018-09-02T21:34:11.643Z,56.24
2018-09-02T21:36:37.623Z,56.93
2018-09-02T21:39:03.552Z,56.71
2018-09-02T21:41:29.526Z,55.31
2018-09-02T21:43:55.478Z,56.11
2018-09-02T21:46:21.425Z,56.96
2018-09-02T21:48:47.371Z,56.65
2018-09-02T21:51:13.351Z,56.30
2018-09-02T21:53:39.317Z,56.91
2018-09-02T21:56:05.264Z,55.18
2018-09-02T21:58:31.228Z,56.53
2018-09-02T22:00:57.208Z,57.01
2018-09-02T22:03:23.176Z,56.24
2018-09-02T22:05:49.178Z,55.82
2018-09-02T22:08:15.141Z,56.31
2018-09-02T22:10:41.106Z,57.17
2018-09-02T22:13:07.052Z,56.56
2018-09-02T22:15:33.018Z,57.23
2018-09-02T22:17:59.004Z,56.64
2018-09-02T22:20:24.964Z,56.79
2018-09-02T22:22:50.948Z,56.27
2018-09-02T22:25:16.907Z,57.23
2018-09-02T22:27:42.863Z,56.02
2018-09-02T22:30:08.834Z,56.64
2018-09-02T22:32:34.802Z,56.59
2018-09-02T22:35:00.764Z,57.00
2018-09-02T22:37:26.737Z,56.03
2018-09-02T22:39:52.703Z,56.09
2018-09-02T22:42:18.632Z,54.80
2018-09-02T22:44:44.592Z,56.98
2018-09-02T22:47:10.548Z,56.41
2018-09-02T22:49:36.528Z,57.16
2018-09-02T22:52:02.446Z,57.37
2018-09-02T22:54:28.420Z,56.07
2018-09-02T22:56:54.435Z,55.30
2018-09-02T22:59:20.411Z,56.82
2018-09-02T23:01:46.414Z,56.78
2018-09-02T23:04:12.358Z,55.65
2018-09-02T23:06:38.332Z,56.34
2018-09-02T23:09:04.299Z,55.05
2018-09-02T23:11:30.261Z,56.70
2018-09-02T23:13:56.222Z,56.37
2018-09-02T23:16:22.320Z,56.13
2018-09-02T23:18:48.293Z,56.92
2018-09-02T23:21:14.259Z,56.41
2018-09-02T23:23:40.227Z,56.43
2018-09-02T23:26:06.177Z,56.76
2018-09-02T23:28:32.125Z,56.34
2018-09-02T23:30:58.064Z,55.75
2018-09-02T23:33:24.010Z,56.57
2018-09-02T23:35:49.956Z,56.18
2018-09-02T23:38:15.893Z,56.35
2018-09-02T23:40:41.857Z,57.31
2018-09-02T23:43:07.796Z,56.64
2018-09-02T23:45:33.748Z,56.41
2018-09-02T23:47:59.725Z,56.68
2018-09-02T23:50:25.701Z,56.11
2018-09-02T23:52:51.653Z,55.85
2018-09-02T23:55:17.580Z,56.13
2018-09-02T23:57:43.541Z,55.72
